createdAt,value
2018-03-29T00:00:14.144Z,99.90
2018-03-29T00:02:41.621Z,99.90
2018-03-29T00:05:09.060Z,99.90
2018-03-29T00:10:10.615Z,99.90
2018-03-29T00:12:38.061Z,99.90
2018-03-29T00:15:05.626Z,99.90
2018-03-29T00:17:33.042Z,99.90
2018-03-29T00:20:00.504Z,99.90
2018-03-29T00:22:27.962Z,99.90
2018-03-29T00:24:55.423Z,99.90
2018-03-29T00:27:22.885Z,99.90
2018-03-29T00:29:51.101Z,99.90
2018-03-29T00:32:18.586Z,99.90
2018-03-29T00:34:46.054Z,99.90
2018-03-29T00:37:13.532Z,99.90
2018-03-29T00:39:41.767Z,99.90
2018-03-29T00:42:09.999Z,99.90
2018-03-29T00:44:37.480Z,99.90
2018-03-29T00:47:05.782Z,99.90
2018-03-29T00:49:33.237Z,99.90
2018-03-29T00:52:00.713Z,99.90
2018-03-29T00:54:28.173Z,99.90
2018-03-29T00:56:55.620Z,99.90
2018-03-29T00:59:23.106Z,99.90
2018-03-29T01:01:51.340Z,99.90
2018-03-29T01:04:18.785Z,99.90
2018-03-29T01:06:46.256Z,99.90
2018-03-29T01:09:13.708Z,99.90
2018-03-29T01:11:41.196Z,99.90
2018-03-29T01:14:08.672Z,99.90
2018-03-29T01:16:36.108Z,99.90
2018-03-29T01:19:03.582Z,99.90
2018-03-29T01:21:32.052Z,99.90
2018-03-29T01:24:00.285Z,99.90
2018-03-29T01:26:27.734Z,99.90
2018-03-29T01:28:55.182Z,99.90
2018-03-29T01:31:22.639Z,99.90
2018-03-29T01:33:50.107Z,99.90
2018-03-29T01:36:17.556Z,99.90
2018-03-29T01:38:45.036Z,99.90
2018-03-29T01:41:12.513Z,99.90
2018-03-29T01:43:39.956Z,99.90
2018-03-29T01:46:07.415Z,99.90
2018-03-29T01:48:34.902Z,99.90
2018-03-29T01:51:03.165Z,99.90
2018-03-29T01:53:30.642Z,99.90
2018-03-29T01:55:58.082Z,99.90
2018-03-29T01:58:26.325Z,99.90
2018-03-29T02:00:53.764Z,99.90
2018-03-29T02:03:21.232Z,99.90
2018-03-29T02:05:48.685Z,99.90
2018-03-29T02:08:16.151Z,99.90
2018-03-29T02:10:43.621Z,99.90
2018-03-29T02:13:11.076Z,99.90
2018-03-29T02:15:38.535Z,99.90
2018-03-29T02:18:05.989Z,99.90
2018-03-29T02:20:33.504Z,99.90
2018-03-29T02:23:00.973Z,99.90
2018-03-29T02:25:28.429Z,99.90
2018-03-29T02:27:55.900Z,99.90
2018-03-29T02:30:23.397Z,99.90
2018-03-29T02:32:51.646Z,99.90
2018-03-29T02:35:19.116Z,99.90
2018-03-29T02:37:46.592Z,99.90
2018-03-29T02:40:14.806Z,99.90
2018-03-29T02:42:42.277Z,99.90
2018-03-29T02:45:09.754Z,99.90
2018-03-29T02:47:37.233Z,99.90
2018-03-29T02:50:05.478Z,99.90
2018-03-29T02:52:32.949Z,99.90
2018-03-29T02:55:00.405Z,99.90
2018-03-29T02:57:27.870Z,99.90
2018-03-29T02:59:55.328Z,99.90
2018-03-29T03:02:22.786Z,99.90
2018-03-29T03:04:51.035Z,99.80
2018-03-29T03:07:19.279Z,99.90
2018-03-29T03:09:46.724Z,99.90
2018-03-29T03:12:14.188Z,99.80
2018-03-29T03:14:41.633Z,99.90
2018-03-29T03:17:09.079Z,99.90
2018-03-29T03:19:36.552Z,99.90
2018-03-29T03:22:04.029Z,99.80
2018-03-29T03:24:31.497Z,99.90
2018-03-29T03:26:58.937Z,99.90
2018-03-29T03:29:26.416Z,99.90
2018-03-29T03:31:53.892Z,99.90
2018-03-29T03:34:21.370Z,99.90
2018-03-29T03:36:49.585Z,99.90
2018-03-29T03:39:17.055Z,99.90
2018-03-29T03:41:44.497Z,99.70
2018-03-29T03:44:11.970Z,99.90
2018-03-29T03:46:40.253Z,99.80
2018-03-29T03:49:07.709Z,99.90
2018-03-29T03:51:35.171Z,99.50
2018-03-29T03:54:02.641Z,99.80
2018-03-29T03:56:30.108Z,99.10
2018-03-29T03:58:58.332Z,99.00
2018-03-29T04:01:25.797Z,99.00
2018-03-29T04:03:53.263Z,98.80
2018-03-29T04:06:21.233Z,98.80
2018-03-29T04:08:48.688Z,99.10
2018-03-29T04:11:16.179Z,98.80
2018-03-29T04:13:43.636Z,99.00
2018-03-29T04:16:11.870Z,99.10
2018-03-29T04:18:39.325Z,99.00
2018-03-29T04:21:06.800Z,99.10
2018-03-29T04:23:34.244Z,99.10
2018-03-29T04:26:01.718Z,99.50
2018-03-29T04:28:29.188Z,99.20
2018-03-29T04:30:56.652Z,98.90
2018-03-29T04:33:24.094Z,98.80
2018-03-29T04:35:51.576Z,98.80
2018-03-29T04:38:19.062Z,98.80
2018-03-29T04:40:46.505Z,98.20
2018-03-29T04:43:13.956Z,98.30
2018-03-29T04:45:41.396Z,98.80
2018-03-29T04:48:08.891Z,98.40
2018-03-29T04:50:36.354Z,98.70
2018-03-29T04:53:03.819Z,98.50
2018-03-29T04:55:31.328Z,98.40
2018-03-29T04:57:58.749Z,98.10
2018-03-29T05:00:26.202Z,98.20
2018-03-29T05:02:53.662Z,98.20
2018-03-29T05:05:21.134Z,98.40
2018-03-29T05:07:48.654Z,98.20
2018-03-29T05:10:16.116Z,98.50
2018-03-29T05:12:43.592Z,98.40
2018-03-29T05:15:11.033Z,98.40
2018-03-29T05:17:38.493Z,98.20
2018-03-29T05:20:05.971Z,98.20
2018-03-29T05:22:33.433Z,98.40
2018-03-29T05:25:00.893Z,98.50
2018-03-29T05:27:28.355Z,98.50
2018-03-29T05:29:55.816Z,98.30
2018-03-29T05:32:24.061Z,98.40
2018-03-29T05:34:51.521Z,98.30
2018-03-29T05:37:18.989Z,98.40
2018-03-29T05:39:46.449Z,98.30
2018-03-29T05:42:13.914Z,98.60
2018-03-29T05:44:42.117Z,98.30
2018-03-29T05:47:09.568Z,98.20
2018-03-29T05:49:37.021Z,98.30
2018-03-29T05:52:04.497Z,98.60
2018-03-29T05:54:31.959Z,98.50
2018-03-29T05:56:59.420Z,98.30
2018-03-29T05:59:26.891Z,98.50
2018-03-29T06:01:57.372Z,98.80
2018-03-29T06:04:24.848Z,98.20
2018-03-29T06:06:52.323Z,98.50
2018-03-29T06:09:19.788Z,98.50
2018-03-29T06:11:47.292Z,98.60
2018-03-29T06:14:14.734Z,98.50
2018-03-29T06:16:47.009Z,98.20
2018-03-29T06:19:15.252Z,98.10
2018-03-29T06:21:42.701Z,98.10
2018-03-29T06:24:10.152Z,98.30
2018-03-29T06:26:37.641Z,98.30
2018-03-29T06:29:05.895Z,98.10
2018-03-29T06:31:33.397Z,98.10
2018-03-29T06:34:00.904Z,97.90
2018-03-29T06:36:28.430Z,97.30
2018-03-29T06:38:55.951Z,97.30
2018-03-29T06:41:24.221Z,96.40
2018-03-29T06:43:51.758Z,96.40
2018-03-29T06:46:19.226Z,96.40
2018-03-29T06:48:46.712Z,96.00
2018-03-29T06:51:14.964Z,95.00
2018-03-29T06:53:42.490Z,95.00
2018-03-29T06:56:10.014Z,95.30
2018-03-29T06:58:38.302Z,95.50
2018-03-29T07:01:05.839Z,95.50
2018-03-29T07:03:33.291Z,94.80
2018-03-29T07:06:01.572Z,94.50
2018-03-29T07:08:29.070Z,94.50
2018-03-29T07:10:56.606Z,94.60
2018-03-29T07:13:24.160Z,94.50
2018-03-29T07:15:52.419Z,94.20
2018-03-29T07:18:20.719Z,93.60
2018-03-29T07:20:48.237Z,93.60
2018-03-29T07:23:15.724Z,93.40
2018-03-29T07:25:43.977Z,93.70
2018-03-29T07:28:11.455Z,93.70
2018-03-29T07:30:39.835Z,94.00
2018-03-29T07:33:07.326Z,93.90
2018-03-29T07:35:34.821Z,93.90
2018-03-29T07:38:02.295Z,94.10
2018-03-29T07:40:30.506Z,94.30
2018-03-29T07:42:57.989Z,94.30
2018-03-29T07:45:25.460Z,94.40
2018-03-29T07:47:52.909Z,94.40
2018-03-29T07:50:20.380Z,95.20
2018-03-29T07:52:47.836Z,95.10
2018-03-29T07:55:15.319Z,94.40
2018-03-29T07:57:43.568Z,95.40
2018-03-29T08:00:11.036Z,95.00
2018-03-29T08:02:38.515Z,94.70
2018-03-29T08:05:06.789Z,94.30
2018-03-29T08:07:34.297Z,94.20
2018-03-29T08:10:01.778Z,94.40
2018-03-29T08:12:29.252Z,94.40
2018-03-29T08:14:57.485Z,94.10
2018-03-29T08:17:24.939Z,94.10
2018-03-29T08:19:52.398Z,94.10
2018-03-29T08:22:19.854Z,93.60
2018-03-29T08:24:47.313Z,93.30
2018-03-29T08:27:14.765Z,93.90
2018-03-29T08:29:42.249Z,93.90
2018-03-29T08:32:09.717Z,93.50
2018-03-29T08:34:37.178Z,93.10
2018-03-29T08:37:05.394Z,93.50
2018-03-29T08:39:32.865Z,93.90
2018-03-29T08:42:00.343Z,93.10
2018-03-29T08:44:27.812Z,93.30
2018-03-29T08:46:55.276Z,93.40
2018-03-29T08:49:23.514Z,93.70
2018-03-29T08:51:50.983Z,93.70
2018-03-29T08:54:24.260Z,93.60
2018-03-29T08:56:51.736Z,94.30
2018-03-29T08:59:19.177Z,94.70
2018-03-29T09:01:46.656Z,94.70
2018-03-29T09:04:14.129Z,94.40
2018-03-29T09:06:42.341Z,93.70
2018-03-29T09:09:09.794Z,93.70
2018-03-29T09:11:37.422Z,94.00
2018-03-29T09:14:05.692Z,93.10
2018-03-29T09:16:34.045Z,93.80
2018-03-29T09:19:01.509Z,93.40
2018-03-29T09:21:28.978Z,93.00
2018-03-29T09:23:56.814Z,92.30
2018-03-29T09:26:24.460Z,91.80
2018-03-29T09:28:51.968Z,90.60
2018-03-29T09:31:20.261Z,90.70
2018-03-29T09:33:48.506Z,90.30
2018-03-29T09:36:15.976Z,90.40
2018-03-29T09:38:44.223Z,89.60
2018-03-29T09:41:13.574Z,89.30
2018-03-29T09:43:41.170Z,89.30
2018-03-29T09:46:08.604Z,87.50
2018-03-29T09:48:36.070Z,89.10
2018-03-29T09:51:03.537Z,90.30
2018-03-29T09:53:30.996Z,91.40
2018-03-29T09:55:58.445Z,91.90
2018-03-29T09:58:25.905Z,91.60
2018-03-29T10:00:53.376Z,91.80
2018-03-29T10:03:22.519Z,86.10
2018-03-29T10:05:50.782Z,80.20
2018-03-29T10:08:19.016Z,73.00
2018-03-29T10:10:46.480Z,73.30
2018-03-29T10:13:13.965Z,71.80
2018-03-29T10:15:41.432Z,67.50
2018-03-29T10:18:09.714Z,74.90
2018-03-29T10:20:37.932Z,76.10
2018-03-29T10:23:05.455Z,76.00
2018-03-29T10:25:32.924Z,79.70
2018-03-29T10:28:00.405Z,80.90
2018-03-29T10:30:27.916Z,79.40
2018-03-29T10:32:56.141Z,80.10
2018-03-29T10:35:23.993Z,80.10
2018-03-29T10:37:51.568Z,80.90
2018-03-29T10:40:19.021Z,79.00
2018-03-29T10:42:47.303Z,79.30
2018-03-29T10:45:14.780Z,79.10
2018-03-29T10:47:44.131Z,74.20
2018-03-29T10:50:11.637Z,72.00
2018-03-29T10:52:41.073Z,70.40
2018-03-29T10:55:09.300Z,65.70
2018-03-29T10:57:36.866Z,65.70
2018-03-29T11:00:05.166Z,67.80
2018-03-29T11:02:32.749Z,67.70
2018-03-29T11:05:00.273Z,68.50
2018-03-29T11:07:28.519Z,78.20
2018-03-29T11:09:56.006Z,78.30
2018-03-29T11:12:24.298Z,86.10
2018-03-29T11:14:52.538Z,81.90
2018-03-29T11:17:20.040Z,82.00
2018-03-29T11:19:48.288Z,85.40
2018-03-29T11:22:16.531Z,91.40
2018-03-29T11:24:44.043Z,91.10
2018-03-29T11:27:11.635Z,90.90
2018-03-29T11:29:39.110Z,92.40
2018-03-29T11:32:06.570Z,92.20
2018-03-29T11:34:34.123Z,92.60
2018-03-29T11:37:01.637Z,93.50
2018-03-29T11:39:29.868Z,89.80
2018-03-29T11:41:57.386Z,89.80
2018-03-29T11:44:24.846Z,90.60
2018-03-29T11:46:52.338Z,88.80
2018-03-29T11:49:19.792Z,89.10
2018-03-29T11:51:47.274Z,90.90
2018-03-29T11:54:14.993Z,85.00
2018-03-29T11:56:42.609Z,88.50
2018-03-29T11:59:10.202Z,84.30
2018-03-29T12:01:37.676Z,78.80
2018-03-29T12:04:05.133Z,78.00
2018-03-29T12:06:32.622Z,73.70
2018-03-29T12:09:00.105Z,72.80
2018-03-29T12:11:28.435Z,69.20
2018-03-29T12:13:55.902Z,68.90
2018-03-29T12:16:23.582Z,69.00
2018-03-29T12:18:51.184Z,67.60
2018-03-29T12:21:19.148Z,65.20
2018-03-29T12:23:46.851Z,66.30
2018-03-29T12:26:14.532Z,68.70
2018-03-29T12:28:42.072Z,73.80
2018-03-29T12:31:11.875Z,77.30
2018-03-29T12:33:39.408Z,80.30
2018-03-29T12:36:07.149Z,80.50
2018-03-29T12:38:35.611Z,79.70
2018-03-29T12:41:03.417Z,79.70
2018-03-29T12:43:31.281Z,80.70
2018-03-29T12:45:59.666Z,78.60
2018-03-29T12:48:27.996Z,69.60
2018-03-29T12:50:55.457Z,69.50
2018-03-29T12:53:22.900Z,68.40
2018-03-29T12:55:51.292Z,69.70
2018-03-29T12:58:18.731Z,68.40
2018-03-29T13:00:46.215Z,69.20
2018-03-29T13:03:14.430Z,71.40
2018-03-29T13:05:41.907Z,71.40
2018-03-29T13:08:09.390Z,72.30
2018-03-29T13:10:36.852Z,69.30
2018-03-29T13:13:05.172Z,73.80
2018-03-29T13:15:32.771Z,73.60
2018-03-29T13:18:00.214Z,73.10
2018-03-29T13:20:27.663Z,71.50
2018-03-29T13:22:55.129Z,74.50
2018-03-29T13:25:22.592Z,73.10
2018-03-29T13:27:50.061Z,74.10
2018-03-29T13:30:17.616Z,76.00
2018-03-29T13:32:45.100Z,77.10
2018-03-29T13:35:13.305Z,71.60
2018-03-29T13:37:40.784Z,71.50
2018-03-29T13:40:08.225Z,72.50
2018-03-29T13:42:35.789Z,70.80
2018-03-29T13:45:03.275Z,72.90
2018-03-29T13:47:30.748Z,71.10
2018-03-29T13:49:58.953Z,66.50
2018-03-29T13:52:26.421Z,67.20
2018-03-29T13:54:53.895Z,69.20
2018-03-29T13:57:21.333Z,69.70
2018-03-29T13:59:48.800Z,70.70
2018-03-29T14:02:16.277Z,72.20
2018-03-29T14:04:43.744Z,73.00
2018-03-29T14:07:11.207Z,73.20
2018-03-29T14:09:38.664Z,75.60
2018-03-29T14:12:06.129Z,74.00
2018-03-29T14:14:33.580Z,70.60
2018-03-29T14:17:01.077Z,71.90
2018-03-29T14:19:39.482Z,72.00
2018-03-29T14:22:10.174Z,71.20
2018-03-29T14:24:37.676Z,71.70
2018-03-29T14:27:05.128Z,70.50
2018-03-29T14:29:32.578Z,69.30
2018-03-29T14:32:00.801Z,70.20
2018-03-29T14:34:28.274Z,70.30
2018-03-29T14:36:55.785Z,68.10
2018-03-29T14:39:23.300Z,66.40
2018-03-29T14:41:50.756Z,64.00
2018-03-29T14:44:18.242Z,71.20
2018-03-29T14:46:46.511Z,69.10
2018-03-29T14:49:15.034Z,69.00
2018-03-29T14:54:20.384Z,65.40
2018-03-29T14:56:47.877Z,67.60
2018-03-29T14:59:15.328Z,68.90
2018-03-29T15:01:42.780Z,69.90
2018-03-29T15:04:10.241Z,72.60
2018-03-29T15:06:37.720Z,70.20
2018-03-29T15:09:05.166Z,70.90
2018-03-29T15:11:32.618Z,71.80
2018-03-29T15:14:00.118Z,68.20
2018-03-29T15:16:31.762Z,66.20
2018-03-29T15:19:05.925Z,67.90
2018-03-29T15:24:09.036Z,71.50
2018-03-29T15:26:36.663Z,70.00
2018-03-29T15:29:05.101Z,70.70
2018-03-29T15:31:33.439Z,68.40
2018-03-29T15:34:03.240Z,70.40
2018-03-29T15:39:05.933Z,67.30
2018-03-29T15:41:33.450Z,68.20
2018-03-29T15:44:03.833Z,67.00
2018-03-29T15:55:24.282Z,68.70
2018-03-29T15:57:55.431Z,66.20
2018-03-29T16:00:23.073Z,67.40
2018-03-29T16:02:50.536Z,64.80
2018-03-29T16:05:19.863Z,64.20
2018-03-29T16:07:50.535Z,63.70
2018-03-29T16:10:19.081Z,63.60
2018-03-29T16:12:46.610Z,63.20
2018-03-29T16:15:18.796Z,63.00
2018-03-29T16:17:46.270Z,64.20
2018-03-29T16:20:13.720Z,63.60
2018-03-29T16:22:41.173Z,63.90
2018-03-29T16:25:08.616Z,64.10
2018-03-29T16:27:36.097Z,63.80
2018-03-29T16:30:03.561Z,64.60
2018-03-29T16:32:31.660Z,64.60
2018-03-29T16:34:59.108Z,64.90
2018-03-29T16:37:27.344Z,64.70
2018-03-29T16:39:54.829Z,64.70
2018-03-29T16:42:23.065Z,68.50
2018-03-29T16:44:50.516Z,69.80
2018-03-29T16:47:17.976Z,76.20
2018-03-29T16:49:45.424Z,79.10
2018-03-29T16:52:13.704Z,65.80
2018-03-29T16:54:41.148Z,65.80
2018-03-29T16:57:08.628Z,59.60
2018-03-29T16:59:36.078Z,57.80
2018-03-29T17:02:03.533Z,54.50
2018-03-29T17:04:31.012Z,54.10
2018-03-29T17:06:58.467Z,51.00
2018-03-29T17:09:25.945Z,54.40
2018-03-29T17:11:54.175Z,57.50
2018-03-29T17:14:21.613Z,56.90
2018-03-29T17:16:49.089Z,57.30
2018-03-29T17:19:16.510Z,58.80
2018-03-29T17:21:43.984Z,58.70
2018-03-29T17:24:11.445Z,61.70
2018-03-29T17:26:38.925Z,67.50
2018-03-29T17:29:06.387Z,70.60
2018-03-29T17:31:33.828Z,72.20
2018-03-29T17:34:01.290Z,73.50
2018-03-29T17:36:28.752Z,74.30
2018-03-29T17:38:56.224Z,74.30
2018-03-29T17:41:23.713Z,74.40
2018-03-29T17:43:51.220Z,74.70
2018-03-29T17:46:18.704Z,75.60
2018-03-29T17:48:46.170Z,76.20
2018-03-29T17:51:14.418Z,78.50
2018-03-29T17:53:41.904Z,78.40
2018-03-29T17:56:10.146Z,78.50
2018-03-29T17:58:37.617Z,78.50
2018-03-29T18:01:05.097Z,78.70
2018-03-29T18:03:33.353Z,80.20
2018-03-29T18:06:00.822Z,80.30
2018-03-29T18:08:29.059Z,79.80
2018-03-29T18:10:56.526Z,79.70
2018-03-29T18:13:24.010Z,80.00
2018-03-29T18:15:51.488Z,79.90
2018-03-29T18:18:20.897Z,79.90
2018-03-29T18:20:48.371Z,80.00
2018-03-29T18:23:15.849Z,80.50
2018-03-29T18:25:43.281Z,81.80
2018-03-29T18:28:10.729Z,82.50
2018-03-29T18:30:38.212Z,82.50
2018-03-29T18:33:05.656Z,82.70
2018-03-29T18:35:33.106Z,83.20
2018-03-29T18:38:00.577Z,83.70
2018-03-29T18:40:28.309Z,84.30
2018-03-29T18:42:56.505Z,85.40
2018-03-29T18:45:24.000Z,85.30
2018-03-29T18:47:51.599Z,85.70
2018-03-29T18:50:19.804Z,86.10
2018-03-29T18:52:47.322Z,86.10
2018-03-29T18:55:14.825Z,86.60
2018-03-29T18:57:42.359Z,87.00
2018-03-29T19:00:09.947Z,87.10
2018-03-29T19:02:37.434Z,87.60
2018-03-29T19:05:05.708Z,87.70
2018-03-29T19:07:33.161Z,87.60
2018-03-29T19:10:00.606Z,87.70
2018-03-29T19:12:28.054Z,88.40
2018-03-29T19:14:55.558Z,88.80
2018-03-29T19:17:23.785Z,88.80
2018-03-29T19:19:51.254Z,88.70
2018-03-29T19:22:18.724Z,88.90
2018-03-29T19:24:46.162Z,90.00
2018-03-29T19:27:13.612Z,90.00
2018-03-29T19:29:41.070Z,90.20
2018-03-29T19:32:08.506Z,90.50
2018-03-29T19:34:35.971Z,90.70
2018-03-29T19:37:04.297Z,91.30
2018-03-29T19:39:32.597Z,91.30
2018-03-29T19:42:00.064Z,91.20
2018-03-29T19:44:27.522Z,91.50
2018-03-29T19:46:54.993Z,91.50
2018-03-29T19:49:22.435Z,91.50
2018-03-29T19:51:50.043Z,91.70
2018-03-29T19:54:17.481Z,91.70
2018-03-29T19:56:44.999Z,91.70
2018-03-29T19:59:12.613Z,91.80
2018-03-29T20:01:40.094Z,91.90
2018-03-29T20:04:08.304Z,92.10
2018-03-29T20:06:35.761Z,92.10
2018-03-29T20:09:03.249Z,92.10
2018-03-29T20:11:30.710Z,92.20
2018-03-29T20:13:59.081Z,92.50
2018-03-29T20:16:26.565Z,92.70
2018-03-29T20:18:54.141Z,92.80
2018-03-29T20:21:22.431Z,93.00
2018-03-29T20:23:49.924Z,92.90
2018-03-29T20:26:17.922Z,93.10
2018-03-29T20:28:45.404Z,92.90
2018-03-29T20:31:14.166Z,93.00
2018-03-29T20:33:41.663Z,92.90
2018-03-29T20:36:09.305Z,93.10
2018-03-29T20:38:37.548Z,93.40
2018-03-29T20:41:05.016Z,93.30
2018-03-29T20:43:32.487Z,93.30
2018-03-29T20:46:00.182Z,93.40
2018-03-29T20:48:27.653Z,93.20
2018-03-29T20:50:55.110Z,93.00
2018-03-29T20:53:22.592Z,93.20
2018-03-29T20:55:50.654Z,93.20
2018-03-29T20:58:18.371Z,93.40
2018-03-29T21:00:45.994Z,93.40
2018-03-29T21:03:13.511Z,93.50
2018-03-29T21:05:41.050Z,93.50
2018-03-29T21:08:08.733Z,93.90
2018-03-29T21:10:36.379Z,93.80
2018-03-29T21:13:04.136Z,94.00
2018-03-29T21:15:31.587Z,94.10
2018-03-29T21:17:59.040Z,94.40
2018-03-29T21:20:27.648Z,94.70
2018-03-29T21:22:55.135Z,94.70
2018-03-29T21:25:22.636Z,94.60
2018-03-29T21:27:50.198Z,94.70
2018-03-29T21:30:17.880Z,95.00
2018-03-29T21:32:45.668Z,94.30
2018-03-29T21:35:13.111Z,94.10
2018-03-29T21:37:40.562Z,94.00
2018-03-29T21:40:08.029Z,94.00
2018-03-29T21:42:35.473Z,94.10
2018-03-29T21:45:02.930Z,93.80
2018-03-29T21:47:30.495Z,94.00
2018-03-29T21:49:57.956Z,94.10
2018-03-29T21:52:25.504Z,94.40
2018-03-29T21:54:53.735Z,94.40
2018-03-29T21:57:21.207Z,94.30
2018-03-29T21:59:48.682Z,94.30
2018-03-29T22:02:16.158Z,94.40
2018-03-29T22:04:43.627Z,94.40
2018-03-29T22:07:11.145Z,94.40
2018-03-29T22:09:39.375Z,94.70
2018-03-29T22:12:06.871Z,94.70
2018-03-29T22:14:35.137Z,94.90
2018-03-29T22:17:03.365Z,95.20
2018-03-29T22:19:30.885Z,94.80
2018-03-29T22:21:58.327Z,94.70
2018-03-29T22:24:26.540Z,94.60
2018-03-29T22:26:54.013Z,94.60
2018-03-29T22:29:21.491Z,94.60
2018-03-29T22:31:48.937Z,94.40
2018-03-29T22:34:16.461Z,94.30
2018-03-29T22:36:43.881Z,94.20
2018-03-29T22:39:12.121Z,94.00
2018-03-29T22:41:39.604Z,94.00
2018-03-29T22:44:07.048Z,94.00
2018-03-29T22:46:34.521Z,94.00
2018-03-29T22:49:02.011Z,94.40
2018-03-29T22:51:29.476Z,94.30
2018-03-29T22:53:56.919Z,94.20
2018-03-29T22:56:24.399Z,94.20
2018-03-29T22:58:51.876Z,94.30
2018-03-29T23:01:19.346Z,94.20
2018-03-29T23:03:46.802Z,94.00
2018-03-29T23:06:14.244Z,94.10
2018-03-29T23:08:41.686Z,94.10
2018-03-29T23:11:09.140Z,94.20
2018-03-29T23:13:36.612Z,94.00
2018-03-29T23:16:04.058Z,94.10
2018-03-29T23:18:31.547Z,94.00
2018-03-29T23:20:59.007Z,93.90
2018-03-29T23:23:26.431Z,94.00
2018-03-29T23:25:53.904Z,94.20
2018-03-29T23:28:21.368Z,94.20
2018-03-29T23:30:48.810Z,94.20
2018-03-29T23:33:16.272Z,94.40
2018-03-29T23:35:43.744Z,94.50
2018-03-29T23:38:11.197Z,94.50
2018-03-29T23:40:38.632Z,94.40
2018-03-29T23:43:06.103Z,94.40
2018-03-29T23:45:33.537Z,94.40
2018-03-29T23:48:01.016Z,94.50
2018-03-29T23:50:28.461Z,94.50
2018-03-29T23:52:55.938Z,94.40
2018-03-29T23:55:23.378Z,94.40
2018-03-29T23:58:02.671Z,94.40
